KCCY/CCY METAR and TAF weather

Enter ICAO airport designator
Station Type Date Time Source
KCCY METAR 2018/07/19 07:35 UTC NOAA

KCCY 190735Z AUTO 15008KT 10SM SCT055 BKN080 BKN130 20/18 A2996 RMK AO2


Station Type Date Time Source
KCCY Decoded METAR 2018/07/19 07:35 UTC NOAA

Charles City, IA, United States (KCCY) 43-04N 092-37W
Jul 19, 2018 - 03:35 AM EDT / 2018.07.19 0735 UTC
Wind: from the SSE (150 degrees) at 9 MPH (8 KT):0
Visibility: 10 mile(s):0
Sky conditions: mostly cloudy
Temperature: 68 F (20 C)
Dew Point: 64 F (18 C)
Relative Humidity: 88%
Pressure (altimeter): 29.96 in. Hg (1014 hPa)
ob: KCCY 190735Z AUTO 15008KT 10SM SCT055 BKN080 BKN130 20/18 A2996 RMK AO2
cycle: 7

Station Type Date Time Source
KCCY TAF UTC NOAA

Error!


Example: see airport list